Vlieland, Netherlands

2:01 AM CEST on August 28, 2014 (GMT +0200)
Vlieland | Change Station
CLOSE
Current Station
Airport
Location: Vlieland,
Elevation: 36 ft
Nearby Weather Stations

Elev 36 ft 53.24 °N, 4.92 °E | Updated 6 minutes ago

Clear
Clear
59 °F
Feels Like 59 °F
N
17
Wind Variable Wind from ESE

Today
High -- | Low -- °F
--% Chance of Precip.
Yesterday
High -- | Low -- °F
Precip. -- in
6:42 AM 8:39 PM
Waxing Crescent, 5% visible
Pressure 29.98 in
Visibility 6.2 miles
Clouds
Dew Point 55 °F
Humidity 88%
Rainfall 0.00 in
Snow Depth Not available.
UV Not available.
Pollen Not available.
Air Quality Not available.
Flu Activity Not available.
METAR EHVL 272355Z AUTO 12015KT 9999 NCD 15/13 Q1015 BLU

More Conditions Fewer Conditions

Pressure 29.98 in
Visibility 6.2 miles
Clouds
Dew Point 55 °F
Humidity 88%
Rainfall 0.00 in
Snow Depth Not available.
UV Not available.
Pollen Not available.
Air Quality Not available.
Flu Activity Not available.
METAR EHVL 272355Z AUTO 12015KT 9999 NCD 15/13 Q1015 BLU

More Conditions Fewer Conditions

10-Day Weather Forecast

Almanac

Astronomy

Aug. 28, 2014 Rise Set
Actual Time 6:42 AM CEST 8:39 PM CEST
Civil Twilight 6:05 AM CEST 9:16 PM CEST
Nautical Twilight 5:19 AM CEST 10:02 PM CEST
Astronomical Twilight 4:25 AM CEST 10:55 PM CEST
Moon 9:48 AM CEST 9:23 PM CEST
Length of Visible Light 15h 10m
Length of Day
13h 56m
Tomorrow will be 4m 2s shorter.
Waxing Crescent, 5% of the Moon is Illuminated
Aug 27
Waxing Crescent
Sep 2
First Quarter
Sep 8
Full
Sep 15
Last Quarter
Sep 24
New

Yesterday's Extremes

Country Highs Country Lows

Community

WunderPhotos

Upload Photos

1,747,826 photos uploaded!

Nearby

Snow Depth

Not available.

Earthquake Activity

City Distance Mag. Time & Date
No recent earthquake activity has been reported nearby.
Minimum magnitude displayed is 2.5.

Coastal Water Temperatures

Place Temperature
No Stations Reporting

Nearby Weather Stations